createdAt,value
2022-07-27T00:00:01.111Z,18.40
2022-07-27T00:02:53.116Z,18.45
2022-07-27T00:05:25.249Z,18.34
2022-07-27T00:07:57.391Z,18.17
2022-07-27T00:10:29.078Z,18.21
2022-07-27T00:13:00.867Z,18.21
2022-07-27T00:15:34.070Z,18.28
2022-07-27T00:18:06.156Z,18.29
2022-07-27T00:20:39.852Z,18.49
2022-07-27T00:23:11.636Z,18.51
2022-07-27T00:25:43.336Z,18.62
2022-07-27T00:28:15.094Z,18.55
2022-07-27T00:30:46.862Z,18.63
2022-07-27T00:33:18.803Z,18.33
2022-07-27T00:35:50.615Z,18.34
2022-07-27T00:38:22.426Z,18.43
2022-07-27T00:40:54.157Z,18.42
2022-07-27T00:43:25.864Z,18.52
2022-07-27T00:45:58.135Z,18.38
2022-07-27T00:48:30.210Z,18.43
2022-07-27T00:51:02.073Z,18.46
2022-07-27T00:53:34.089Z,18.32
2022-07-27T00:56:06.956Z,18.14
2022-07-27T00:58:40.711Z,18.08
2022-07-27T01:01:12.461Z,18.04
2022-07-27T01:03:44.268Z,18.27
2022-07-27T01:06:24.880Z,18.58
2022-07-27T01:09:14.390Z,18.67
2022-07-27T01:11:46.950Z,18.60
2022-07-27T01:14:19.365Z,18.61
2022-07-27T01:16:52.341Z,18.65
2022-07-27T01:19:24.686Z,18.70
2022-07-27T01:21:56.534Z,18.60
2022-07-27T01:24:28.702Z,18.55
2022-07-27T01:27:01.830Z,18.46
2022-07-27T01:29:35.036Z,18.49
2022-07-27T01:32:07.839Z,18.43
2022-07-27T01:34:38.088Z,18.49
2022-07-27T01:37:09.743Z,18.55
2022-07-27T01:39:41.642Z,18.47
2022-07-27T01:42:13.635Z,18.52
2022-07-27T01:44:45.291Z,18.46
2022-07-27T01:47:17.523Z,18.57
2022-07-27T01:49:50.301Z,18.60
2022-07-27T01:52:22.359Z,18.54
2022-07-27T01:54:54.339Z,18.29
2022-07-27T01:57:26.105Z,18.42
2022-07-27T01:59:58.227Z,18.24
2022-07-27T02:02:29.969Z,18.22
2022-07-27T02:05:01.975Z,18.23
2022-07-27T02:07:33.809Z,18.19
2022-07-27T02:10:06.830Z,18.06
2022-07-27T02:12:39.207Z,18.15
2022-07-27T02:15:15.328Z,18.12
2022-07-27T02:17:48.706Z,18.05
2022-07-27T02:20:25.137Z,17.96
2022-07-27T02:22:57.536Z,17.99
2022-07-27T02:25:29.270Z,17.96
2022-07-27T02:28:01.063Z,17.95
2022-07-27T02:30:33.018Z,18.04
2022-07-27T02:33:06.013Z,18.03
2022-07-27T02:35:37.789Z,18.04
2022-07-27T02:38:09.540Z,18.01
2022-07-27T02:40:41.338Z,18.02
2022-07-27T02:43:13.164Z,18.21
2022-07-27T02:45:46.432Z,18.21
2022-07-27T02:48:19.363Z,18.00
2022-07-27T02:50:49.781Z,18.06
2022-07-27T02:53:21.476Z,17.99
2022-07-27T02:55:53.122Z,18.00
2022-07-27T02:58:24.942Z,17.97
2022-07-27T03:00:58.704Z,18.01
2022-07-27T03:03:35.933Z,17.87
2022-07-27T03:06:09.479Z,17.96
2022-07-27T03:08:42.068Z,18.01
2022-07-27T03:11:13.703Z,18.04
2022-07-27T03:13:45.422Z,18.17
2022-07-27T03:16:17.221Z,18.18
2022-07-27T03:18:49.967Z,18.09
2022-07-27T03:21:22.126Z,17.97
2022-07-27T03:23:54.042Z,17.77
2022-07-27T03:26:25.808Z,17.84
2022-07-27T03:28:57.529Z,17.75
2022-07-27T03:31:29.300Z,17.69
2022-07-27T03:34:02.208Z,17.75
2022-07-27T03:36:34.094Z,17.71
2022-07-27T03:39:07.414Z,17.81
2022-07-27T03:41:39.268Z,17.77
2022-07-27T03:44:11.086Z,17.74
2022-07-27T03:46:42.824Z,17.78
2022-07-27T03:49:15.522Z,17.74
2022-07-27T03:51:47.870Z,17.76
2022-07-27T03:54:19.580Z,17.68
2022-07-27T03:56:51.266Z,17.97
2022-07-27T03:59:23.741Z,18.08
2022-07-27T04:01:55.592Z,17.98
2022-07-27T04:04:27.494Z,18.05
2022-07-27T04:06:59.303Z,17.91
2022-07-27T04:09:31.394Z,17.97
2022-07-27T04:12:02.190Z,17.99
2022-07-27T04:14:34.498Z,18.03
2022-07-27T04:17:06.347Z,17.98
2022-07-27T04:19:39.003Z,17.87
2022-07-27T04:22:09.434Z,17.91
2022-07-27T04:24:41.289Z,18.02
2022-07-27T04:27:13.208Z,18.11
2022-07-27T04:29:45.116Z,18.06
2022-07-27T04:32:17.041Z,17.95
2022-07-27T04:34:48.862Z,17.88
2022-07-27T04:37:20.487Z,17.86
2022-07-27T04:39:52.258Z,17.97
2022-07-27T04:42:24.320Z,18.00
2022-07-27T04:44:56.149Z,17.89
2022-07-27T04:47:27.934Z,18.00
2022-07-27T04:49:59.953Z,18.09
2022-07-27T04:52:31.837Z,18.07
2022-07-27T04:55:03.871Z,18.07
2022-07-27T04:57:37.230Z,18.07
2022-07-27T05:00:11.767Z,18.11
2022-07-27T05:02:43.783Z,18.13
2022-07-27T05:05:15.498Z,18.07
2022-07-27T05:07:47.677Z,17.95
2022-07-27T05:10:20.467Z,18.19
2022-07-27T05:12:52.759Z,18.35
2022-07-27T05:15:24.878Z,18.25
2022-07-27T05:17:56.613Z,18.09
2022-07-27T05:20:28.384Z,17.95
2022-07-27T05:23:00.486Z,18.04
2022-07-27T05:25:32.240Z,18.20
2022-07-27T05:28:04.086Z,18.11
2022-07-27T05:30:36.156Z,18.23
2022-07-27T05:33:07.951Z,18.42
2022-07-27T05:35:39.907Z,18.48
2022-07-27T05:38:11.752Z,18.53
2022-07-27T05:40:46.407Z,18.38
2022-07-27T05:43:18.233Z,18.33
2022-07-27T05:45:50.351Z,18.44
2022-07-27T05:48:22.436Z,18.58
2022-07-27T05:50:54.269Z,18.74
2022-07-27T05:53:27.482Z,18.57
2022-07-27T05:55:59.879Z,18.69
2022-07-27T05:58:31.793Z,18.69
2022-07-27T06:01:03.623Z,18.67
2022-07-27T06:03:35.609Z,18.68
2022-07-27T06:06:21.338Z,18.70
2022-07-27T06:08:54.167Z,18.63
2022-07-27T06:11:25.922Z,18.44
2022-07-27T06:13:57.763Z,18.29
2022-07-27T06:16:29.738Z,18.41
2022-07-27T06:19:01.518Z,18.31
2022-07-27T06:21:33.740Z,18.13
2022-07-27T06:24:06.312Z,18.17
2022-07-27T06:26:38.047Z,18.32
2022-07-27T06:29:10.964Z,18.18
2022-07-27T06:31:43.063Z,18.05
2022-07-27T06:34:16.657Z,18.05
2022-07-27T06:36:49.034Z,18.28
2022-07-27T06:39:21.026Z,18.25
2022-07-27T06:41:57.933Z,18.29
2022-07-27T06:44:30.109Z,18.24
2022-07-27T06:47:01.913Z,18.32
2022-07-27T06:49:33.900Z,18.31
2022-07-27T06:52:07.907Z,18.36
2022-07-27T06:54:40.029Z,18.50
2022-07-27T06:57:11.737Z,18.63
2022-07-27T06:59:44.018Z,18.62
2022-07-27T07:02:15.912Z,18.55
2022-07-27T07:04:47.935Z,18.49
2022-07-27T07:07:19.817Z,18.51
2022-07-27T07:09:52.202Z,18.28
2022-07-27T07:12:25.713Z,18.24
2022-07-27T07:14:57.455Z,18.21
2022-07-27T07:17:29.373Z,18.07
2022-07-27T07:20:01.156Z,17.86
2022-07-27T07:22:34.334Z,18.01
2022-07-27T07:25:07.058Z,18.02
2022-07-27T07:27:38.768Z,18.08
2022-07-27T07:30:12.380Z,18.13
2022-07-27T07:32:44.514Z,18.05
2022-07-27T07:35:17.040Z,18.04
2022-07-27T07:37:50.538Z,18.09
2022-07-27T07:43:16.104Z,18.06
2022-07-27T07:45:50.881Z,18.20
2022-07-27T07:48:24.800Z,18.37
2022-07-27T07:50:56.638Z,18.39
2022-07-27T07:53:29.071Z,18.59
2022-07-27T07:56:01.292Z,18.57
2022-07-27T07:58:33.501Z,18.59
2022-07-27T08:01:05.492Z,18.62
2022-07-27T08:03:37.431Z,18.56
2022-07-27T08:06:09.266Z,18.50
2022-07-27T08:08:41.094Z,18.63
2022-07-27T08:11:13.504Z,18.55
2022-07-27T08:13:45.655Z,18.62
2022-07-27T08:16:17.678Z,18.70
2022-07-27T08:18:49.453Z,18.81
2022-07-27T08:21:21.396Z,18.91
2022-07-27T08:23:53.486Z,18.92
2022-07-27T08:26:31.417Z,19.05
2022-07-27T08:29:04.421Z,19.36
2022-07-27T08:31:52.436Z,19.53
2022-07-27T08:34:24.970Z,19.19
2022-07-27T08:36:56.845Z,19.41
2022-07-27T08:42:22.149Z,19.53
2022-07-27T08:44:55.265Z,19.60
2022-07-27T08:47:28.444Z,19.67
2022-07-27T08:50:01.181Z,19.63
2022-07-27T08:52:33.776Z,19.61
2022-07-27T08:55:06.791Z,19.38
2022-07-27T08:57:39.566Z,19.60
2022-07-27T09:00:13.754Z,19.62
2022-07-27T09:02:46.212Z,19.54
2022-07-27T09:05:18.643Z,19.43
2022-07-27T09:07:50.467Z,19.39
2022-07-27T09:10:38.421Z,19.49
2022-07-27T09:13:24.726Z,19.45
2022-07-27T09:18:59.448Z,19.46
2022-07-27T09:21:31.250Z,19.68
2022-07-27T09:24:29.294Z,19.60
2022-07-27T09:27:07.413Z,19.69
2022-07-27T09:29:39.504Z,19.82
2022-07-27T09:32:17.963Z,19.76
2022-07-27T09:34:49.810Z,20.00
2022-07-27T09:37:28.450Z,20.08
2022-07-27T09:40:24.321Z,20.15
2022-07-27T09:44:05.648Z,20.13
2022-07-27T09:46:09.464Z,20.08
2022-07-27T09:48:41.483Z,20.19
2022-07-27T09:51:57.743Z,20.26
2022-07-27T09:54:10.385Z,20.24
2022-07-27T09:56:43.131Z,20.33
2022-07-27T09:59:20.209Z,20.51
2022-07-27T10:01:54.773Z,20.73
2022-07-27T10:04:27.651Z,20.70
2022-07-27T10:07:04.690Z,20.97
2022-07-27T10:09:39.759Z,20.84
2022-07-27T10:12:12.339Z,20.90
2022-07-27T10:14:42.647Z,20.68
2022-07-27T10:17:16.338Z,20.54
2022-07-27T10:19:50.716Z,20.69
2022-07-27T10:22:51.462Z,21.08
2022-07-27T10:25:24.654Z,21.21
2022-07-27T10:28:16.443Z,20.96
2022-07-27T10:30:54.206Z,20.73
2022-07-27T10:33:47.555Z,21.05
2022-07-27T10:36:40.824Z,21.18
2022-07-27T10:39:12.777Z,21.33
2022-07-27T10:41:44.804Z,21.56
2022-07-27T10:44:52.407Z,21.55
2022-07-27T10:47:34.283Z,21.20
2022-07-27T10:50:33.118Z,21.06
2022-07-27T10:53:07.962Z,20.94
2022-07-27T10:55:59.792Z,21.30
2022-07-27T10:58:48.719Z,21.58
2022-07-27T11:01:23.469Z,21.61
2022-07-27T11:03:56.408Z,21.64
2022-07-27T11:06:55.410Z,21.93
2022-07-27T11:12:16.791Z,22.12
2022-07-27T11:14:50.504Z,21.96
2022-07-27T11:17:52.427Z,22.31
2022-07-27T11:20:16.451Z,22.27
2022-07-27T11:23:49.537Z,22.66
2022-07-27T11:25:40.078Z,22.79
2022-07-27T11:28:11.944Z,22.91
2022-07-27T11:30:44.205Z,22.64
2022-07-27T11:33:17.555Z,22.68
2022-07-27T11:35:56.547Z,22.95
2022-07-27T11:38:29.008Z,23.52
2022-07-27T11:41:15.358Z,23.08
2022-07-27T11:43:53.122Z,22.67
2022-07-27T11:46:28.021Z,23.01
2022-07-27T11:49:07.472Z,22.89
2022-07-27T11:51:42.267Z,22.81
2022-07-27T11:54:24.410Z,23.09
2022-07-27T11:56:58.628Z,22.89
2022-07-27T11:59:32.491Z,22.67
2022-07-27T12:02:07.143Z,22.60
2022-07-27T12:04:40.997Z,22.82
2022-07-27T12:07:16.773Z,23.18
2022-07-27T12:09:50.985Z,23.25
2022-07-27T12:12:25.802Z,23.02
2022-07-27T12:15:16.358Z,23.05
2022-07-27T12:17:59.007Z,23.25
2022-07-27T12:20:37.316Z,23.19
2022-07-27T12:23:10.125Z,22.96
2022-07-27T12:25:41.962Z,22.56
2022-07-27T12:28:18.182Z,22.45
2022-07-27T12:30:51.303Z,22.20
2022-07-27T12:33:31.598Z,22.14
2022-07-27T12:36:06.377Z,22.20
2022-07-27T12:38:43.543Z,22.73
2022-07-27T12:41:26.599Z,23.01
2022-07-27T12:44:10.363Z,22.83
2022-07-27T12:46:56.513Z,22.83
2022-07-27T12:49:34.482Z,22.42
2022-07-27T12:52:11.047Z,22.77
2022-07-27T12:54:42.780Z,22.93
2022-07-27T12:57:24.326Z,22.83
2022-07-27T13:00:07.822Z,22.95
2022-07-27T13:02:40.300Z,22.68
2022-07-27T13:05:14.785Z,22.73
2022-07-27T13:07:48.456Z,23.06
2022-07-27T13:10:21.990Z,23.08
2022-07-27T13:12:56.480Z,23.22
2022-07-27T13:15:28.894Z,23.33
2022-07-27T13:18:00.851Z,23.08
2022-07-27T13:20:33.420Z,22.92
2022-07-27T13:23:07.770Z,23.08
2022-07-27T13:25:43.218Z,23.08
2022-07-27T13:28:15.464Z,22.95
2022-07-27T13:30:47.282Z,22.95
2022-07-27T13:33:19.103Z,22.96
2022-07-27T13:35:53.242Z,22.95
2022-07-27T13:38:32.872Z,22.82
2022-07-27T13:41:05.251Z,23.17
2022-07-27T13:43:37.055Z,23.17
2022-07-27T13:46:10.381Z,23.49
2022-07-27T13:48:42.246Z,23.82
2022-07-27T13:51:14.427Z,23.67
2022-07-27T13:53:46.169Z,23.79
2022-07-27T13:56:17.954Z,23.71
2022-07-27T13:58:55.674Z,23.70
2022-07-27T14:01:28.004Z,23.86
2022-07-27T14:04:02.764Z,23.71
2022-07-27T14:06:35.500Z,23.82
2022-07-27T14:09:08.838Z,23.94
2022-07-27T14:11:51.031Z,23.90
2022-07-27T14:14:26.833Z,23.63
2022-07-27T14:16:59.057Z,23.82
2022-07-27T14:19:31.235Z,23.97
2022-07-27T14:22:03.479Z,23.99
2022-07-27T14:24:38.067Z,24.16
2022-07-27T14:27:10.628Z,24.61
2022-07-27T14:29:42.658Z,24.46
2022-07-27T14:32:14.576Z,24.33
2022-07-27T14:34:46.383Z,23.83
2022-07-27T14:37:18.153Z,23.96
2022-07-27T14:39:49.976Z,24.20
2022-07-27T14:42:23.861Z,24.20
2022-07-27T14:44:55.678Z,24.37
2022-07-27T14:47:27.420Z,24.66
2022-07-27T14:49:59.345Z,24.91
2022-07-27T14:52:31.209Z,24.82
2022-07-27T14:55:02.963Z,24.65
2022-07-27T14:57:33.910Z,24.83
2022-07-27T15:00:10.340Z,25.42
2022-07-27T15:02:42.819Z,25.22
2022-07-27T15:05:15.590Z,25.30
2022-07-27T15:07:47.572Z,25.11
2022-07-27T15:10:20.651Z,24.99
2022-07-27T15:12:52.814Z,24.95
2022-07-27T15:15:26.673Z,25.06
2022-07-27T15:17:58.781Z,24.99
2022-07-27T15:20:30.776Z,25.36
2022-07-27T15:23:03.356Z,25.59
2022-07-27T15:25:35.265Z,24.92
2022-07-27T15:28:07.888Z,25.00
2022-07-27T15:30:40.208Z,25.36
2022-07-27T15:33:12.069Z,25.37
2022-07-27T15:35:43.940Z,25.30
2022-07-27T15:38:15.731Z,25.38
2022-07-27T15:40:47.691Z,25.20
2022-07-27T15:43:20.926Z,24.86
2022-07-27T15:45:53.235Z,25.35
2022-07-27T15:48:23.754Z,25.58
2022-07-27T15:50:58.773Z,25.06
2022-07-27T15:53:32.035Z,25.01
2022-07-27T15:56:03.748Z,25.11
2022-07-27T15:58:35.980Z,24.85
2022-07-27T16:01:12.055Z,25.18
2022-07-27T16:03:44.892Z,25.10
2022-07-27T16:06:21.671Z,24.98
2022-07-27T16:08:54.101Z,24.62
2022-07-27T16:11:27.042Z,24.47
2022-07-27T16:14:00.163Z,24.69
2022-07-27T16:16:31.362Z,24.69
2022-07-27T16:19:12.965Z,24.52
2022-07-27T16:21:55.133Z,24.68
2022-07-27T16:24:28.929Z,24.77
2022-07-27T16:27:05.277Z,25.55
2022-07-27T16:29:37.717Z,25.36
2022-07-27T16:32:08.182Z,25.12
2022-07-27T16:34:41.241Z,25.17
2022-07-27T16:37:14.081Z,25.29
2022-07-27T16:39:46.419Z,25.34
2022-07-27T16:42:18.388Z,25.49
2022-07-27T16:44:50.757Z,25.62
2022-07-27T16:47:22.621Z,25.84
2022-07-27T16:49:55.191Z,26.12
2022-07-27T16:52:27.597Z,25.84
2022-07-27T16:54:59.323Z,25.82
2022-07-27T16:57:31.287Z,25.43
2022-07-27T17:00:05.377Z,25.89
2022-07-27T17:02:37.535Z,25.28
2022-07-27T17:05:09.942Z,24.81
2022-07-27T17:07:42.868Z,24.16
2022-07-27T17:10:26.966Z,23.80
2022-07-27T17:12:59.893Z,23.51
2022-07-27T17:15:33.822Z,23.14
2022-07-27T17:18:08.485Z,22.84
2022-07-27T17:20:41.469Z,22.69
2022-07-27T17:23:13.256Z,22.63
2022-07-27T17:25:45.378Z,22.69
2022-07-27T17:28:17.340Z,22.52
2022-07-27T17:30:49.337Z,22.56
2022-07-27T17:33:21.452Z,22.67
2022-07-27T17:35:53.352Z,22.45
2022-07-27T17:38:25.232Z,22.41
2022-07-27T17:40:59.893Z,22.36
2022-07-27T17:43:31.690Z,22.13
2022-07-27T17:46:04.975Z,22.11
2022-07-27T17:48:37.144Z,22.19
2022-07-27T17:51:10.685Z,22.08
2022-07-27T17:53:42.506Z,21.87
2022-07-27T17:56:14.325Z,21.82
2022-07-27T17:58:47.435Z,21.73
2022-07-27T18:01:46.705Z,21.60
2022-07-27T18:04:15.764Z,21.64
2022-07-27T18:06:47.582Z,21.73
2022-07-27T18:09:19.870Z,21.47
2022-07-27T18:11:51.728Z,21.50
2022-07-27T18:14:23.854Z,21.79
2022-07-27T18:16:57.031Z,21.53
2022-07-27T18:19:29.616Z,21.47
2022-07-27T18:22:02.647Z,21.48
2022-07-27T18:24:35.778Z,21.49
2022-07-27T18:27:07.732Z,21.59
2022-07-27T18:29:39.911Z,21.61
2022-07-27T18:32:12.040Z,21.49
2022-07-27T18:34:43.740Z,21.24
2022-07-27T18:37:19.783Z,21.19
2022-07-27T18:39:51.757Z,21.11
2022-07-27T18:42:23.571Z,21.49
2022-07-27T18:44:55.533Z,21.37
2022-07-27T18:47:27.741Z,21.37
2022-07-27T18:50:01.223Z,21.06
2022-07-27T18:52:33.327Z,21.25
2022-07-27T18:55:06.643Z,21.24
2022-07-27T18:57:38.518Z,21.19
2022-07-27T19:00:12.834Z,20.84
2022-07-27T19:02:45.604Z,20.90
2022-07-27T19:05:22.257Z,20.91
2022-07-27T19:08:04.707Z,20.89
2022-07-27T19:10:39.318Z,20.66
2022-07-27T19:13:11.163Z,20.44
2022-07-27T19:15:45.014Z,20.62
2022-07-27T19:18:17.090Z,20.54
2022-07-27T19:20:49.031Z,20.62
2022-07-27T19:23:20.973Z,20.58
2022-07-27T19:26:00.380Z,21.05
2022-07-27T19:28:32.728Z,21.16
2022-07-27T19:31:03.305Z,21.43
2022-07-27T19:33:35.511Z,20.87
2022-07-27T19:36:08.492Z,20.59
2022-07-27T19:38:40.355Z,20.87
2022-07-27T19:41:12.391Z,21.37
2022-07-27T19:43:44.172Z,21.41
2022-07-27T19:46:16.187Z,20.88
2022-07-27T19:48:48.450Z,20.93
2022-07-27T19:51:20.452Z,21.24
2022-07-27T19:53:53.019Z,21.43
2022-07-27T19:56:25.177Z,21.30
2022-07-27T19:58:57.444Z,21.29
2022-07-27T20:01:29.562Z,21.51
2022-07-27T20:04:01.988Z,21.17
2022-07-27T20:06:34.704Z,20.72
2022-07-27T20:09:07.207Z,20.96
2022-07-27T20:11:39.554Z,21.16
2022-07-27T20:14:11.491Z,21.42
2022-07-27T20:16:44.485Z,21.53
2022-07-27T20:19:17.013Z,21.61
2022-07-27T20:21:47.753Z,21.54
2022-07-27T20:24:19.616Z,21.18
2022-07-27T20:26:51.350Z,21.27
2022-07-27T20:29:24.302Z,20.85
2022-07-27T20:31:57.376Z,21.05
2022-07-27T20:34:30.203Z,20.86
2022-07-27T20:37:02.254Z,21.07
2022-07-27T20:39:34.321Z,20.87
2022-07-27T20:42:07.819Z,20.54
2022-07-27T20:44:40.269Z,20.68
2022-07-27T20:47:14.688Z,20.52
2022-07-27T20:49:47.761Z,20.38
2022-07-27T20:52:20.107Z,20.74
2022-07-27T20:54:52.907Z,20.13
2022-07-27T20:57:25.346Z,19.67
2022-07-27T20:59:57.618Z,20.18
2022-07-27T21:02:29.719Z,19.96
2022-07-27T21:05:01.474Z,19.79
2022-07-27T21:07:33.279Z,19.20
2022-07-27T21:10:05.542Z,18.85
2022-07-27T21:12:37.622Z,18.72
2022-07-27T21:15:13.410Z,18.55
2022-07-27T21:17:45.749Z,18.16
2022-07-27T21:20:17.908Z,18.16
2022-07-27T21:23:10.062Z,18.33
2022-07-27T21:25:44.163Z,18.20
2022-07-27T21:28:18.346Z,18.09
2022-07-27T21:30:50.574Z,17.97
2022-07-27T21:33:22.331Z,17.76
2022-07-27T21:35:54.044Z,17.60
2022-07-27T21:38:25.961Z,17.63
2022-07-27T21:40:57.778Z,17.86
2022-07-27T21:43:29.510Z,17.99
2022-07-27T21:46:01.499Z,18.06
2022-07-27T21:48:34.180Z,18.09
2022-07-27T21:51:07.160Z,17.81
2022-07-27T21:53:37.315Z,17.89
2022-07-27T21:56:09.244Z,17.90
2022-07-27T21:58:41.638Z,17.81
2022-07-27T22:01:14.455Z,17.59
2022-07-27T22:03:47.264Z,17.79
2022-07-27T22:06:17.786Z,17.92
2022-07-27T22:08:49.769Z,18.08
2022-07-27T22:11:21.609Z,18.08
2022-07-27T22:13:53.366Z,18.07
2022-07-27T22:16:25.121Z,18.08
2022-07-27T22:18:57.346Z,18.06
2022-07-27T22:21:29.719Z,18.05
2022-07-27T22:24:01.381Z,18.08
2022-07-27T22:26:33.150Z,18.06
2022-07-27T22:29:04.795Z,18.09
2022-07-27T22:31:36.581Z,18.10
2022-07-27T22:34:08.529Z,18.09
2022-07-27T22:36:40.274Z,18.04
2022-07-27T22:39:12.914Z,18.01
2022-07-27T22:41:43.018Z,18.03
2022-07-27T22:44:15.973Z,18.01
2022-07-27T22:46:52.358Z,17.99
2022-07-27T22:49:24.951Z,18.03
2022-07-27T22:51:57.757Z,18.05
2022-07-27T22:54:29.419Z,18.02
2022-07-27T22:57:01.232Z,17.98
2022-07-27T22:59:33.009Z,17.97
2022-07-27T23:02:04.989Z,17.92
2022-07-27T23:04:36.937Z,17.90
2022-07-27T23:07:08.601Z,17.96
2022-07-27T23:09:41.028Z,17.88
2022-07-27T23:12:13.086Z,17.88
2022-07-27T23:14:49.259Z,17.90
2022-07-27T23:17:21.477Z,17.76
2022-07-27T23:19:53.479Z,17.78
2022-07-27T23:22:26.357Z,17.80
2022-07-27T23:24:58.075Z,17.73
2022-07-27T23:27:29.866Z,17.54
2022-07-27T23:30:01.534Z,17.56
2022-07-27T23:32:33.884Z,17.56
2022-07-27T23:35:06.080Z,17.58
2022-07-27T23:37:37.850Z,17.61
2022-07-27T23:40:11.494Z,17.53
2022-07-27T23:42:43.297Z,17.56
2022-07-27T23:45:15.350Z,17.55
2022-07-27T23:47:47.301Z,17.51
2022-07-27T23:50:20.012Z,17.47
2022-07-27T23:52:52.108Z,17.22
2022-07-27T23:55:23.735Z,16.95
2022-07-27T23:57:58.723Z,16.96
